METAR AND TAF INFORMATION
METAR FOR LGAL
ADDS - METARS form results

(1530 UTC 19 May 2019)
Data provider http://aviationweather.gov/metar/data/
 
METAR text: LGAL 191520Z 25008KT 9999 FEW025 25/12 Q1010
Conditions at: LGAL (ALEXANDROUPOLIS , GR) observed 1520 UTC 19 May 2019
Temperature: 25.0°C (77°F)
Dewpoint: 12.0°C (54°F) [RH = 44%]
Pressure (altimeter): 29.82 inches Hg (1010.0 mb)
Winds: from the WSW (250 degrees) at 9 MPH (8 knots; 4.1 m/s)
Visibility: 6 or more miles (10+ km)
Ceiling: at least 12,000 feet AGL
Clouds: few clouds at 2500 feet AGL
Weather: no significant weather observed at this time

METAR text: LGAL 191450Z 23006KT 9999 FEW025 25/12 Q1010
Conditions at: LGAL (ALEXANDROUPOLIS , GR) observed 1450 UTC 19 May 2019
Temperature: 25.0°C (77°F)
Dewpoint: 12.0°C (54°F) [RH = 44%]
Pressure (altimeter): 29.82 inches Hg (1010.0 mb)
Winds: from the SW (230 degrees) at 7 MPH (6 knots; 3.1 m/s)
Visibility: 6 or more miles (10+ km)
Ceiling: at least 12,000 feet AGL
Clouds: few clouds at 2500 feet AGL
Weather: no significant weather observed at this time

Forecast for: LGAL (ALEXANDROUPOLIS , GR)
Text: TAF LGAL 191400Z 1915/1924 23010KT 9999 FEW020 SCT060
Forecast period: 1500 to 1600 UTC 19 May 2019
Forecast type: FROM: standard forecast or significant change
Winds: from the SW (230 degrees) at 12 MPH (10 knots; 5.1 m/s)
Visibility: 6 or more miles 10+ km)
Ceiling: at least 12,000 feet AGL
Clouds: few clouds at 2000 feet AGL
scattered clouds at 6000 feet AGL
Weather: no significant weather forecast for this period
Text: BECMG 1916/1918 VRB05KT
Forecast period: 1600 UTC 19 May 2019 to 0000 UTC 20 May 2019
Forecast type: BECOMING: Conditions expected to become as follows by 1800 UTC 19 May 2019
Winds: variable direction winds at 6 MPH (5 knots; 2.6 m/s)
Visibility: 6 or more miles 10+ km)
Ceiling: at least 12,000 feet AGL
Clouds: few clouds at 2000 feet AGL
scattered clouds at 6000 feet AGL
Weather: no significant weather forecast for this period

 ΧΑΡΤΗΣ ΑΕΡΟΔΡΟΜΙΟΥ

 RUNWAY INFORMATION
Διάδρομος 07 Runway length 8471 ft Runway width 148 ft
Runway elevation 10 ft Runway displaced threshold 0 ft Runway heading 73
Διάδρομος 25 Runway length 8471 ft Runway width 148 ft
Runway elevation 24 ft Runway displaced threshold 0 ft Runway heading 253

 ΣΥΧΝΟΤΗΤΕΣ ΑΕΡΟΔΡΟΜΙΟΥ
Τύπος A/G Όνομα ALEXANDROU Συχνότητα 563.7 MHZ
Τύπος APP Όνομα ALEXANDROU Συχνότητα 123.8 MHZ
Τύπος TWR Όνομα ALEXANDROU Συχνότητα 123.8 MHZ

 AIRPORT NEAR NAVIGATION AIDS
Τύπος NDB Όνομα Alexandroupolis Συχνότητα 351 KHZ
Τύπος VOR-DME Όνομα Alexandroupolis Συχνότητα 113800 KHZ



Hellenic Air Force Virtual - All rights reserved 2019 - Powered by VAM